Sunday, October 22, 2017, 8:45 PM EDT
Back to Local

KJST, Johnstown-cambria Co Airport

Location: Johnstown, PA, United States Lat: 40.317
Local Time: 8:45 PM EDT ( 0:45 GMT) Lon: -78.833
Time Zone: US/Eastern Elev: 2283 ft

Show me the last for .
Show Coded

Time T Td Feel RH Dir Speed Gust Alt SLP Vis Weather Sky Remarks
2017-10-22 19:54 62 53 - 72 140° 14 18 30.27 30.27 10 CLR 6-hr Min Temp (8pm): 62.1°F
6-hr Max Temp (8pm): 71.1°F
2017-10-22 18:54 63 52 - 67 130° 9 - 30.27 30.25 10 CLR None
2017-10-22 17:54 65 52 - 62 130° 9 - 30.26 30.24 10 CLR None
2017-10-22 16:54 68 50 - 52 150° 14 - 30.26 30.24 10 CLR None
2017-10-22 15:54 70 50 - 49 160° 14 - 30.28 30.26 10 CLR None
2017-10-22 14:54 70 50 - 49 140° 9 - 30.29 30.27 10 CLR None
2017-10-22 13:54 70 51 - 51 160° 12 - 30.30 30.28 10 CLR 6-hr Min Temp (2pm): 53.1°F
6-hr Max Temp (2pm): 70.0°F
2017-10-22 12:54 68 50 - 52 200° 9 22 30.33 30.31 10 CLR None
2017-10-22 11:54 66 51 - 58 150° 9 - 30.34 30.32 10 CLR None
2017-10-22 10:54 64 51 - 62 160° 9 - 30.35 30.34 10 CLR None
2017-10-22 09:54 62 50 - 64 160° 9 - 30.36 30.34 10 CLR None
2017-10-22 08:54 58 49 - 71 180° 6 - 30.35 30.34 10 CLR None
2017-10-22 07:54 53 47 - 79 170° 6 - 30.35 30.35 10 CLR 6-hr Min Temp (8am): 53.1°F
6-hr Max Temp (8am): 57.0°F
2017-10-22 06:54 56 47 - 71 180° 7 - 30.35 30.34 10 CLR None
2017-10-22 05:54 56 48 - 74 180° 5 - 30.34 30.33 10 CLR None
2017-10-22 04:54 57 48 - 71 200° 6 - 30.33 30.31 10 CLR None
2017-10-22 03:54 56 47 - 71 180° 7 - 30.31 30.29 10 CLR None
2017-10-22 02:54 56 46 - 69 170° 7 - 30.31 30.29 10 CLR None
2017-10-22 01:54 56 44 - 64 190° 7 - 30.32 30.30 10 CLR 6-hr Min Temp (2am): 55.0°F
6-hr Max Temp (2am): 61.0°F
2017-10-22 00:54 57 44 - 61 200° 5 - 30.33 30.31 10 CLR 24-hr Min Temp (1am): 48.0°F
24-hr Max Temp (1am): 73.0°F
2017-10-21 23:54 57 44 - 61 170° 5 - 30.34 30.32 10 CLR None
2017-10-21 22:54 58 44 - 59 190° 5 - 30.35 30.33 10 CLR None
2017-10-21 21:54 59 45 - 59 170° 7 - 30.35 30.34 10 CLR None
2017-10-21 20:54 60 46 - 59 150° 9 - 30.34 30.33 10 CLR None

Support USWX by starting your Amazon purchase here.